Leesburg International Airport
KLEE : now visible

Airfield :











YOU CAN JOIN US ON...

 
LOGIN :

Register | Disclaimer

   EN    FR    IT 

 









Legend :    VFR   Marginal VFR   IFR   Intensive IFR   Very Intensive IFR
Visi :
Ceiling :
>= 8 km
>= 3000ft
5 to 8 km
1000 to 3000 ft
1500m to 5 km
500 to 1000 ft
800 to 1500m
200 to 500 ft
< 800m
< 200 ft
Symbols :   Thunderstorms  Fog  Heavy snow  Heavy precipitations  Wind > 20 kt







- Airport Elevation : 76 ft


KLEE - Leesburg International

CURRENT METAR :
  • 210553Z AUTO 33003KT 10SM SCT032 25/23 A3008 RMK AO2 SLP184 T02500233 10261 20244 50003

EXPIRED METARs :
  • 210453Z AUTO 00000KT 10SM CLR 25/23 A3009 RMK AO2 SLP188 T02500228 403500239
  • 210353Z AUTO 23004KT 10SM CLR 26/24 A3009 RMK AO2 SLP188 T02610239

TAF KLEE
Valid from the 21 at 06:00 until the 22 at 06:00 UTC


210535Z 2106/2206 00000KT P6SM SCT250
FM211400 16004KT P6SM SCT035 SCT250
FM211900 14007KT P6SM VCTS SCT035CB BKN080
TEMPO 2119/2122 3SM TSRA BKN025CB BKN040
FM212300 12005KT P6SM VCTS SCT040CB BKN080 BKN250
FM220100 VRB03KT P6SM SCT100 BKN250
KZJX FIR / North America



MET'MAP, your aeronautical weather chart ! - Copyright ORBIFLY December 2007 - Disclaimer

ORBIFLY MET'MAP TEAM :

Programming & Development : Alexandra Zaïnal
Concept & Development : Baudouin d'Aumeries
Co-Development & Prog : Marc-Olivier Méhu
Technical & hardware support : Manuel Goepfert

Contact : metmap@orbifly.com




SOURCES & CREDITS :

   NOAA       Earth
Advisory